Terminal Aerodrome Forecast
Issued by NWS

Home | Current Version | Previous Version | Graphics & Text | Print | Product List | Glossary On
Versions: 1 2 3 4 5 6 7 8 9 10 11 12 13 14 15 16 17 18
854
FTUS43 KTOP 191740
TAFMHK
TAF
KMHK 191740Z 1918/2018 16006KT P6SM SKC
     FM200700 17005KT P6SM VCTS SCT050CB BKN100
     FM201200 17005KT P6SM SCT100=

USA.gov is the U.S. government's official web portal to all federal, state and local government web resources and services.